createdAt,value
2023-04-29T00:00:45.473Z,94808.00
2023-04-29T00:01:45.502Z,94810.00
2023-04-29T00:02:45.698Z,94810.00
2023-04-29T00:03:45.737Z,94812.00
2023-04-29T00:04:45.962Z,94814.00
2023-04-29T00:05:45.937Z,94814.00
2023-04-29T00:06:45.881Z,94808.00
2023-04-29T00:07:45.898Z,94810.00
2023-04-29T00:08:45.934Z,94808.00
2023-04-29T00:09:46.053Z,94804.00
2023-04-29T00:10:46.218Z,94802.00
2023-04-29T00:11:46.169Z,94798.00
2023-04-29T00:12:46.273Z,94802.00
2023-04-29T00:13:46.324Z,94802.00
2023-04-29T00:14:46.337Z,94800.00
2023-04-29T00:15:46.447Z,94806.00
2023-04-29T00:16:46.506Z,94804.00
2023-04-29T00:17:46.550Z,94810.00
2023-04-29T00:18:46.595Z,94808.00
2023-04-29T00:19:46.666Z,94806.00
2023-04-29T00:20:46.742Z,94800.00
2023-04-29T00:21:46.799Z,94796.00
2023-04-29T00:22:46.903Z,94800.00
2023-04-29T00:23:46.961Z,94796.00
2023-04-29T00:24:46.985Z,94800.00
2023-04-29T00:25:47.027Z,94802.00
2023-04-29T00:26:47.122Z,94806.00
2023-04-29T00:27:47.189Z,94806.00
2023-04-29T00:28:47.231Z,94806.00
2023-04-29T00:29:47.309Z,94804.00
2023-04-29T00:30:47.399Z,94804.00
2023-04-29T00:31:47.422Z,94806.00
2023-04-29T00:32:47.562Z,94812.00
2023-04-29T00:33:47.585Z,94820.00
2023-04-29T00:34:47.594Z,94825.00
2023-04-29T00:35:47.654Z,94827.00
2023-04-29T00:36:47.714Z,94825.00
2023-04-29T00:37:47.808Z,94824.00
2023-04-29T00:38:47.877Z,94816.00
2023-04-29T00:39:47.930Z,94810.00
2023-04-29T00:40:48.005Z,94808.00
2023-04-29T00:41:48.047Z,95951.00
2023-04-29T00:42:48.130Z,94816.00
2023-04-29T00:43:48.245Z,94816.00
2023-04-29T00:44:48.254Z,94820.00
2023-04-29T00:45:48.373Z,94818.00
2023-04-29T00:46:48.411Z,94816.00
2023-04-29T00:47:48.463Z,94810.00
2023-04-29T00:48:48.484Z,94808.00
2023-04-29T00:49:48.524Z,94804.00
2023-04-29T00:50:48.617Z,94806.00
2023-04-29T00:51:48.685Z,94802.00
2023-04-29T00:52:48.742Z,94804.00
2023-04-29T00:53:49.706Z,94806.00
2023-04-29T00:54:48.873Z,94808.00
2023-04-29T00:55:48.914Z,94810.00
2023-04-29T00:56:48.968Z,94806.00
2023-04-29T00:57:49.089Z,94808.00
2023-04-29T00:58:49.153Z,94806.00
2023-04-29T00:59:49.180Z,94810.00
2023-04-29T01:00:49.255Z,94808.00
2023-04-29T01:01:49.402Z,94810.00
2023-04-29T01:02:49.507Z,94810.00
2023-04-29T01:03:49.602Z,94812.00
2023-04-29T01:04:49.604Z,94810.00
2023-04-29T01:05:49.602Z,94810.00
2023-04-29T01:06:49.622Z,94812.00
2023-04-29T01:07:49.729Z,94812.00
2023-04-29T01:08:49.768Z,94810.00
2023-04-29T01:09:49.836Z,94808.00
2023-04-29T01:10:49.862Z,94802.00
2023-04-29T01:11:49.961Z,94800.00
2023-04-29T01:12:50.009Z,94794.00
2023-04-29T01:13:50.068Z,94788.00
2023-04-29T01:14:50.122Z,94783.00
2023-04-29T01:15:50.266Z,94777.00
2023-04-29T01:16:50.247Z,94775.00
2023-04-29T01:17:50.328Z,94775.00
2023-04-29T01:18:50.369Z,94773.00
2023-04-29T01:19:50.577Z,94781.00
2023-04-29T01:20:50.527Z,94779.00
2023-04-29T01:21:50.583Z,94781.00
2023-04-29T01:22:50.644Z,94786.00
2023-04-29T01:23:50.686Z,94785.00
2023-04-29T01:24:50.758Z,94788.00
2023-04-29T01:25:50.796Z,94788.00
2023-04-29T01:26:50.867Z,94788.00
2023-04-29T01:27:50.970Z,94786.00
2023-04-29T01:28:51.024Z,94783.00
2023-04-29T01:29:51.190Z,94783.00
2023-04-29T01:30:51.146Z,94781.00
2023-04-29T01:31:51.304Z,94785.00
2023-04-29T01:32:51.313Z,94781.00
2023-04-29T01:33:51.333Z,94781.00
2023-04-29T01:34:51.372Z,94781.00
2023-04-29T01:35:51.471Z,94777.00
2023-04-29T01:36:51.493Z,94773.00
2023-04-29T01:37:51.559Z,94771.00
2023-04-29T01:38:51.617Z,94767.00
2023-04-29T01:39:51.891Z,94765.00
2023-04-29T01:40:51.810Z,94767.00
2023-04-29T01:41:51.848Z,94767.00
2023-04-29T01:42:51.915Z,94773.00
2023-04-29T01:43:51.927Z,94773.00
2023-04-29T01:44:51.982Z,94775.00
2023-04-29T01:45:52.072Z,94773.00
2023-04-29T01:46:52.152Z,94771.00
2023-04-29T01:47:52.360Z,94769.00
2023-04-29T01:48:52.250Z,94767.00
2023-04-29T01:49:52.426Z,94769.00
2023-04-29T01:50:52.368Z,94767.00
2023-04-29T01:51:52.473Z,94765.00
2023-04-29T01:52:52.486Z,94761.00
2023-04-29T01:53:52.543Z,94761.00
2023-04-29T01:54:52.639Z,94761.00
2023-04-29T01:55:52.747Z,94763.00
2023-04-29T01:56:52.750Z,94759.00
2023-04-29T01:57:52.834Z,94763.00
2023-04-29T01:58:52.858Z,94765.00
2023-04-29T01:59:53.129Z,94765.00
2023-04-29T02:00:53.031Z,94767.00
2023-04-29T02:01:53.065Z,94773.00
2023-04-29T02:02:53.254Z,94775.00
2023-04-29T02:03:53.402Z,94775.00
2023-04-29T02:04:53.353Z,94773.00
2023-04-29T02:05:53.319Z,94771.00
2023-04-29T02:06:53.413Z,94771.00
2023-04-29T02:07:53.445Z,94769.00
2023-04-29T02:08:53.478Z,94763.00
2023-04-29T02:09:53.846Z,94759.00
2023-04-29T02:10:53.624Z,94761.00
2023-04-29T02:11:53.665Z,94759.00
2023-04-29T02:12:53.744Z,94757.00
2023-04-29T02:13:53.793Z,94755.00
2023-04-29T02:14:53.865Z,94747.00
2023-04-29T02:15:53.979Z,94745.00
2023-04-29T02:16:54.045Z,94741.00
2023-04-29T02:17:54.230Z,94743.00
2023-04-29T02:18:54.155Z,94745.00
2023-04-29T02:19:54.402Z,94747.00
2023-04-29T02:20:54.281Z,94745.00
2023-04-29T02:21:54.329Z,94739.00
2023-04-29T02:22:54.360Z,94738.00
2023-04-29T02:23:54.437Z,94732.00
2023-04-29T02:24:54.514Z,94730.00
2023-04-29T02:25:54.560Z,94732.00
2023-04-29T02:26:54.673Z,94739.00
2023-04-29T02:27:54.713Z,94747.00
2023-04-29T02:28:54.788Z,94751.00
2023-04-29T02:29:54.905Z,94751.00
2023-04-29T02:30:54.905Z,94747.00
2023-04-29T02:31:55.101Z,94747.00
2023-04-29T02:32:55.026Z,94747.00
2023-04-29T02:33:55.067Z,94745.00
2023-04-29T02:34:55.123Z,94741.00
2023-04-29T02:35:55.207Z,94739.00
2023-04-29T02:36:55.258Z,94736.00
2023-04-29T02:37:55.294Z,94736.00
2023-04-29T02:38:55.376Z,94736.00
2023-04-29T02:39:55.598Z,94738.00
2023-04-29T02:40:55.571Z,94741.00
2023-04-29T02:41:55.544Z,94747.00
2023-04-29T02:42:55.638Z,94753.00
2023-04-29T02:43:55.694Z,94753.00
2023-04-29T02:44:55.737Z,94755.00
2023-04-29T02:45:55.866Z,94755.00
2023-04-29T02:46:55.875Z,94755.00
2023-04-29T02:47:56.087Z,94753.00
2023-04-29T02:48:56.016Z,94753.00
2023-04-29T02:49:56.096Z,94747.00
2023-04-29T02:50:56.112Z,94749.00
2023-04-29T02:51:56.166Z,94747.00
2023-04-29T02:52:56.270Z,94745.00
2023-04-29T02:53:56.335Z,94741.00
2023-04-29T02:54:56.392Z,94741.00
2023-04-29T02:55:57.436Z,94741.00
2023-04-29T02:56:56.531Z,94743.00
2023-04-29T02:57:56.567Z,94753.00
2023-04-29T02:58:56.642Z,94759.00
2023-04-29T02:59:56.674Z,94759.00
2023-04-29T03:00:56.796Z,94763.00
2023-04-29T03:01:56.814Z,94769.00
2023-04-29T03:02:56.969Z,94767.00
2023-04-29T03:03:57.382Z,94761.00
2023-04-29T03:04:57.006Z,94759.00
2023-04-29T03:05:57.096Z,94757.00
2023-04-29T03:06:57.147Z,94757.00
2023-04-29T03:07:57.212Z,94757.00
2023-04-29T03:08:57.246Z,94763.00
2023-04-29T03:09:57.320Z,94761.00
2023-04-29T03:10:57.325Z,94763.00
2023-04-29T03:11:57.407Z,94761.00
2023-04-29T03:12:57.439Z,94763.00
2023-04-29T03:13:57.471Z,94763.00
2023-04-29T03:14:57.556Z,94761.00
2023-04-29T03:15:57.590Z,94761.00
2023-04-29T03:16:57.728Z,94759.00
2023-04-29T03:17:57.704Z,94761.00
2023-04-29T03:18:57.701Z,94759.00
2023-04-29T03:19:57.791Z,94757.00
2023-04-29T03:20:57.743Z,94753.00
2023-04-29T03:21:57.753Z,94747.00
2023-04-29T03:22:57.771Z,94745.00
2023-04-29T03:23:57.829Z,94741.00
2023-04-29T03:24:57.871Z,94739.00
2023-04-29T03:25:57.976Z,94741.00
2023-04-29T03:26:57.950Z,94741.00
2023-04-29T03:27:57.961Z,94734.00
2023-04-29T03:28:58.056Z,94732.00
2023-04-29T03:29:58.070Z,94732.00
2023-04-29T03:30:58.126Z,94732.00
2023-04-29T03:31:58.096Z,94732.00
2023-04-29T03:32:58.169Z,94734.00
2023-04-29T03:33:58.182Z,94736.00
2023-04-29T03:34:58.157Z,94736.00
2023-04-29T03:35:58.253Z,94736.00
2023-04-29T03:36:58.270Z,94739.00
2023-04-29T03:37:58.273Z,94741.00
2023-04-29T03:38:58.336Z,94745.00
2023-04-29T03:39:58.335Z,94747.00
2023-04-29T03:40:58.410Z,94747.00
2023-04-29T03:41:58.395Z,94747.00
2023-04-29T03:42:58.471Z,94749.00
2023-04-29T03:43:58.465Z,94749.00
2023-04-29T03:44:58.475Z,94751.00
2023-04-29T03:45:58.664Z,94755.00
2023-04-29T03:46:58.606Z,94751.00
2023-04-29T03:47:58.684Z,94747.00
2023-04-29T03:48:58.567Z,94741.00
2023-04-29T03:49:58.570Z,94741.00
2023-04-29T03:50:58.663Z,94736.00
2023-04-29T03:51:58.714Z,94734.00
2023-04-29T03:52:58.725Z,94732.00
2023-04-29T03:53:58.778Z,94732.00
2023-04-29T03:54:58.850Z,94730.00
2023-04-29T03:55:58.853Z,94734.00
2023-04-29T03:56:58.866Z,94734.00
2023-04-29T03:57:58.922Z,94736.00
2023-04-29T03:58:58.925Z,94736.00
2023-04-29T03:59:58.908Z,94736.00
2023-04-29T04:00:59.000Z,94736.00
2023-04-29T04:01:59.029Z,94739.00
2023-04-29T04:02:59.414Z,94741.00
2023-04-29T04:03:59.313Z,94743.00
2023-04-29T04:04:59.113Z,94741.00
2023-04-29T04:05:59.116Z,94738.00
2023-04-29T04:06:59.173Z,94739.00
2023-04-29T04:07:59.174Z,94739.00
2023-04-29T04:08:59.198Z,94739.00
2023-04-29T04:09:59.260Z,94738.00
2023-04-29T04:10:59.264Z,94739.00
2023-04-29T04:11:59.295Z,94736.00
2023-04-29T04:12:59.321Z,94734.00
2023-04-29T04:13:59.331Z,94738.00
2023-04-29T04:14:59.379Z,94736.00
2023-04-29T04:15:59.405Z,94734.00
2023-04-29T04:16:59.459Z,94738.00
2023-04-29T04:17:59.466Z,94739.00
2023-04-29T04:18:59.468Z,94741.00
2023-04-29T04:20:00.452Z,94741.00
2023-04-29T04:20:59.532Z,94741.00
2023-04-29T04:21:59.553Z,94739.00
2023-04-29T04:22:59.572Z,94743.00
2023-04-29T04:23:59.549Z,94741.00
2023-04-29T04:24:59.979Z,94741.00
2023-04-29T04:25:59.575Z,94743.00
2023-04-29T04:26:59.600Z,94745.00
2023-04-29T04:27:59.611Z,94747.00
2023-04-29T04:28:59.694Z,94751.00
2023-04-29T04:29:59.646Z,94753.00
2023-04-29T04:30:59.695Z,94757.00
2023-04-29T04:31:59.813Z,94757.00
2023-04-29T04:32:59.804Z,94761.00
2023-04-29T04:33:59.889Z,94761.00
2023-04-29T04:34:59.788Z,94761.00
2023-04-29T04:35:59.797Z,94761.00
2023-04-29T04:36:59.807Z,94763.00
2023-04-29T04:37:59.916Z,94763.00
2023-04-29T04:38:59.871Z,94761.00
2023-04-29T04:39:59.936Z,94759.00
2023-04-29T04:40:59.923Z,94761.00
2023-04-29T04:41:59.968Z,94759.00
2023-04-29T04:42:59.997Z,94763.00
2023-04-29T04:44:00.047Z,94763.00
2023-04-29T04:45:00.057Z,94763.00
2023-04-29T04:46:00.123Z,94763.00
2023-04-29T04:47:00.122Z,94761.00
2023-04-29T04:48:00.204Z,94763.00
2023-04-29T04:49:00.158Z,94765.00
2023-04-29T04:50:00.200Z,94763.00
2023-04-29T04:51:00.196Z,94765.00
2023-04-29T04:52:00.263Z,94765.00
2023-04-29T04:53:00.291Z,94767.00
2023-04-29T04:54:00.295Z,94763.00
2023-04-29T04:55:00.303Z,94763.00
2023-04-29T04:56:00.373Z,94761.00
2023-04-29T04:57:00.358Z,94761.00
2023-04-29T04:58:00.388Z,94765.00
2023-04-29T04:59:00.440Z,94761.00
2023-04-29T05:00:00.445Z,94763.00
2023-04-29T05:01:00.537Z,94767.00
2023-04-29T05:02:00.606Z,94767.00
2023-04-29T05:03:00.706Z,94765.00
2023-04-29T05:04:00.771Z,94769.00
2023-04-29T05:05:00.626Z,94769.00
2023-04-29T05:06:00.678Z,94767.00
2023-04-29T05:07:00.687Z,94769.00
2023-04-29T05:08:00.746Z,94769.00
2023-04-29T05:09:00.766Z,94769.00
2023-04-29T05:10:00.770Z,94769.00
2023-04-29T05:11:00.830Z,94769.00
2023-04-29T05:12:00.862Z,94767.00
2023-04-29T05:13:00.878Z,94767.00
2023-04-29T05:14:00.910Z,94765.00
2023-04-29T05:15:00.961Z,94767.00
2023-04-29T05:16:00.944Z,94769.00
2023-04-29T05:17:01.001Z,94767.00
2023-04-29T05:18:01.054Z,94767.00
2023-04-29T05:19:01.012Z,94767.00
2023-04-29T05:20:01.090Z,94765.00
2023-04-29T05:21:01.121Z,94765.00
2023-04-29T05:22:01.137Z,94767.00
2023-04-29T05:23:01.180Z,94767.00
2023-04-29T05:24:01.227Z,94765.00
2023-04-29T05:25:01.225Z,94767.00
2023-04-29T05:26:01.296Z,94765.00
2023-04-29T05:27:01.331Z,94771.00
2023-04-29T05:28:01.373Z,94771.00
2023-04-29T05:29:01.396Z,94771.00
2023-04-29T05:30:01.440Z,94773.00
2023-04-29T05:31:01.474Z,94771.00
2023-04-29T05:32:01.503Z,94771.00
2023-04-29T05:33:01.566Z,94773.00
2023-04-29T05:34:01.600Z,94769.00
2023-04-29T05:35:01.603Z,94771.00
2023-04-29T05:36:01.634Z,94773.00
2023-04-29T05:37:01.676Z,94775.00
2023-04-29T05:38:01.678Z,94777.00
2023-04-29T05:39:01.730Z,94779.00
2023-04-29T05:40:01.818Z,94779.00
2023-04-29T05:41:01.789Z,94777.00
2023-04-29T05:42:01.821Z,94775.00
2023-04-29T05:43:01.865Z,94775.00
2023-04-29T05:44:01.903Z,94771.00
2023-04-29T05:45:01.962Z,94769.00
2023-04-29T05:46:02.080Z,94769.00
2023-04-29T05:47:02.043Z,94761.00
2023-04-29T05:48:02.175Z,94765.00
2023-04-29T05:49:02.239Z,94763.00
2023-04-29T05:50:02.154Z,94761.00
2023-04-29T05:51:02.184Z,94763.00
2023-04-29T05:52:02.216Z,94763.00
2023-04-29T05:53:02.254Z,94771.00
2023-04-29T05:54:02.292Z,94775.00
2023-04-29T05:55:02.406Z,94773.00
2023-04-29T05:56:02.378Z,94775.00
2023-04-29T05:57:02.449Z,94771.00
2023-04-29T05:58:02.429Z,94771.00
2023-04-29T05:59:02.487Z,94765.00
2023-04-29T06:00:02.551Z,94765.00
2023-04-29T06:01:02.591Z,94767.00
2023-04-29T06:02:02.603Z,94771.00
2023-04-29T06:03:02.669Z,94771.00
2023-04-29T06:04:02.926Z,94771.00
2023-04-29T06:05:02.923Z,94771.00
2023-04-29T06:06:03.095Z,94773.00
2023-04-29T06:07:02.869Z,94775.00
2023-04-29T06:08:02.905Z,94781.00
2023-04-29T06:09:04.040Z,94775.00
2023-04-29T06:10:03.041Z,94779.00
2023-04-29T06:11:03.148Z,94779.00
2023-04-29T06:12:03.171Z,94779.00
2023-04-29T06:13:03.222Z,94779.00
2023-04-29T06:14:03.329Z,94779.00
2023-04-29T06:15:03.347Z,94777.00
2023-04-29T06:16:03.498Z,94775.00
2023-04-29T06:17:03.485Z,94779.00
2023-04-29T06:18:03.591Z,94777.00
2023-04-29T06:19:03.655Z,94779.00
2023-04-29T06:20:03.714Z,94781.00
2023-04-29T06:21:03.751Z,94783.00
2023-04-29T06:22:03.793Z,94781.00
2023-04-29T06:23:03.838Z,94781.00
2023-04-29T06:24:03.960Z,94783.00
2023-04-29T06:25:03.997Z,94781.00
2023-04-29T06:26:04.065Z,94781.00
2023-04-29T06:27:04.112Z,94781.00
2023-04-29T06:28:04.210Z,94781.00
2023-04-29T06:29:04.225Z,94779.00
2023-04-29T06:30:04.298Z,94781.00
2023-04-29T06:31:04.465Z,94781.00
2023-04-29T06:32:04.568Z,94781.00
2023-04-29T06:33:04.509Z,94781.00
2023-04-29T06:34:04.552Z,94783.00
2023-04-29T06:35:04.595Z,94781.00
2023-04-29T06:36:04.671Z,94783.00
2023-04-29T06:37:04.758Z,94785.00
2023-04-29T06:38:04.809Z,94785.00
2023-04-29T06:39:04.830Z,94785.00
2023-04-29T06:40:04.927Z,94785.00
2023-04-29T06:41:04.985Z,94783.00
2023-04-29T06:42:05.005Z,94781.00
2023-04-29T06:43:05.260Z,94783.00
2023-04-29T06:44:05.146Z,94783.00
2023-04-29T06:45:05.989Z,94781.00
2023-04-29T06:46:05.261Z,94786.00
2023-04-29T06:47:05.350Z,94785.00
2023-04-29T06:48:05.444Z,94783.00
2023-04-29T06:49:05.398Z,94779.00
2023-04-29T06:50:05.459Z,94779.00
2023-04-29T06:51:05.521Z,94779.00
2023-04-29T06:52:05.581Z,94781.00
2023-04-29T06:53:05.622Z,94779.00
2023-04-29T06:54:05.672Z,94781.00
2023-04-29T06:55:05.684Z,94781.00
2023-04-29T06:56:05.755Z,94779.00
2023-04-29T06:57:05.821Z,94777.00
2023-04-29T06:58:05.890Z,94779.00
2023-04-29T06:59:05.922Z,94773.00
2023-04-29T07:00:05.965Z,94775.00
2023-04-29T07:01:06.047Z,94773.00
2023-04-29T07:02:06.097Z,94771.00
2023-04-29T07:03:06.236Z,94777.00
2023-04-29T07:04:06.219Z,94773.00
2023-04-29T07:05:06.248Z,94775.00
2023-04-29T07:06:06.276Z,94777.00
2023-04-29T07:07:06.324Z,94777.00
2023-04-29T07:08:06.393Z,94777.00
2023-04-29T07:09:06.426Z,94779.00
2023-04-29T07:10:06.475Z,94775.00
2023-04-29T07:11:06.524Z,94773.00
2023-04-29T07:12:06.556Z,94773.00
2023-04-29T07:13:06.589Z,94771.00
2023-04-29T07:14:06.675Z,94767.00
2023-04-29T07:15:06.717Z,94769.00
2023-04-29T07:16:06.793Z,94769.00
2023-04-29T07:17:06.870Z,94769.00
2023-04-29T07:18:07.006Z,94767.00
2023-04-29T07:19:06.877Z,94771.00
2023-04-29T07:20:06.944Z,94771.00
2023-04-29T07:21:06.970Z,94771.00
2023-04-29T07:22:07.001Z,94769.00
2023-04-29T07:23:07.071Z,94767.00
2023-04-29T07:24:07.121Z,94767.00
2023-04-29T07:25:07.161Z,94767.00
2023-04-29T07:26:07.155Z,94767.00
2023-04-29T07:27:07.248Z,94767.00
2023-04-29T07:28:07.259Z,94767.00
2023-04-29T07:29:07.309Z,94767.00
2023-04-29T07:30:07.371Z,94765.00
2023-04-29T07:31:07.452Z,94765.00
2023-04-29T07:32:07.464Z,94765.00
2023-04-29T07:33:07.508Z,94763.00
2023-04-29T07:34:07.487Z,94763.00
2023-04-29T07:35:07.561Z,94761.00
2023-04-29T07:36:07.569Z,94763.00
2023-04-29T07:37:07.732Z,94763.00
2023-04-29T07:38:07.691Z,94761.00
2023-04-29T07:39:07.689Z,94759.00
2023-04-29T07:40:07.784Z,94761.00
2023-04-29T07:41:07.771Z,94755.00
2023-04-29T07:42:07.829Z,94755.00
2023-04-29T07:43:07.859Z,94753.00
2023-04-29T07:44:07.910Z,94751.00
2023-04-29T07:45:07.938Z,94749.00
2023-04-29T07:46:07.998Z,94747.00
2023-04-29T07:47:07.981Z,94747.00
2023-04-29T07:48:08.077Z,94747.00
2023-04-29T07:49:08.099Z,94747.00
2023-04-29T07:50:08.148Z,94749.00
2023-04-29T07:51:08.144Z,94745.00
2023-04-29T07:52:08.198Z,94749.00
2023-04-29T07:53:08.266Z,94751.00
2023-04-29T07:54:08.290Z,94749.00
2023-04-29T07:55:08.287Z,94749.00
2023-04-29T07:56:08.377Z,94745.00
2023-04-29T07:57:08.362Z,94747.00
2023-04-29T07:58:08.432Z,94747.00
2023-04-29T07:59:08.438Z,94745.00
2023-04-29T08:00:08.493Z,94745.00
2023-04-29T08:01:08.532Z,94745.00
2023-04-29T08:02:08.562Z,94743.00
2023-04-29T08:03:08.748Z,94739.00
2023-04-29T08:04:08.751Z,94739.00
2023-04-29T08:05:09.086Z,94741.00
2023-04-29T08:06:08.886Z,94741.00
2023-04-29T08:07:08.727Z,94743.00
2023-04-29T08:08:08.779Z,94741.00
2023-04-29T08:09:08.805Z,94741.00
2023-04-29T08:10:08.838Z,94739.00
2023-04-29T08:11:08.867Z,94738.00
2023-04-29T08:12:08.910Z,94736.00
2023-04-29T08:13:08.944Z,94738.00
2023-04-29T08:14:08.950Z,94736.00
2023-04-29T08:15:09.922Z,94736.00
2023-04-29T08:16:09.105Z,94736.00
2023-04-29T08:17:09.090Z,94736.00
2023-04-29T08:18:09.196Z,94738.00
2023-04-29T08:19:09.135Z,94734.00
2023-04-29T08:20:09.192Z,94734.00
2023-04-29T08:21:09.173Z,94730.00
2023-04-29T08:22:09.209Z,94728.00
2023-04-29T08:23:09.250Z,94726.00
2023-04-29T08:24:09.274Z,94732.00
2023-04-29T08:25:09.319Z,94728.00
2023-04-29T08:26:09.350Z,94728.00
2023-04-29T08:27:09.391Z,94726.00
2023-04-29T08:28:09.421Z,94724.00
2023-04-29T08:29:09.394Z,94724.00
2023-04-29T08:30:09.472Z,94724.00
2023-04-29T08:31:09.562Z,94726.00
2023-04-29T08:32:09.483Z,94726.00
2023-04-29T08:33:09.587Z,94730.00
2023-04-29T08:34:09.575Z,94730.00
2023-04-29T08:35:09.649Z,94732.00
2023-04-29T08:36:09.656Z,94732.00
2023-04-29T08:37:09.710Z,94730.00
2023-04-29T08:38:09.705Z,94728.00
2023-04-29T08:39:09.710Z,94730.00
2023-04-29T08:40:09.757Z,94728.00
2023-04-29T08:41:09.804Z,94726.00
2023-04-29T08:42:09.785Z,94728.00
2023-04-29T08:43:09.843Z,94724.00
2023-04-29T08:44:09.842Z,94722.00
2023-04-29T08:45:09.921Z,94722.00
2023-04-29T08:46:10.008Z,94722.00
2023-04-29T08:47:09.988Z,94724.00
2023-04-29T08:48:10.130Z,94720.00
2023-04-29T08:49:10.025Z,94718.00
2023-04-29T08:50:10.102Z,94720.00
2023-04-29T08:51:10.097Z,94718.00
2023-04-29T08:52:10.128Z,94718.00
2023-04-29T08:53:10.214Z,94714.00
2023-04-29T08:54:10.221Z,94712.00
2023-04-29T08:55:10.232Z,94712.00
2023-04-29T08:56:10.228Z,94710.00
2023-04-29T08:57:10.450Z,94708.00
2023-04-29T08:58:10.323Z,94708.00
2023-04-29T08:59:10.345Z,94708.00
2023-04-29T09:00:10.414Z,94706.00
2023-04-29T09:01:10.419Z,94706.00
2023-04-29T09:02:10.415Z,94706.00
2023-04-29T09:03:10.558Z,94704.00
2023-04-29T09:04:10.654Z,94700.00
2023-04-29T09:05:10.477Z,94702.00
2023-04-29T09:06:10.507Z,94700.00
2023-04-29T09:07:10.512Z,94696.00
2023-04-29T09:08:10.571Z,94696.00
2023-04-29T09:09:10.560Z,94696.00
2023-04-29T09:10:10.601Z,94692.00
2023-04-29T09:11:10.613Z,94691.00
2023-04-29T09:12:10.613Z,94689.00
2023-04-29T09:13:10.666Z,94692.00
2023-04-29T09:14:10.669Z,94691.00
2023-04-29T09:15:10.718Z,94691.00
2023-04-29T09:16:10.766Z,94689.00
2023-04-29T09:17:10.781Z,94687.00
2023-04-29T09:18:10.804Z,94689.00
2023-04-29T09:19:10.810Z,94689.00
2023-04-29T09:20:10.858Z,94687.00
2023-04-29T09:21:10.855Z,94687.00
2023-04-29T09:22:10.853Z,94685.00
2023-04-29T09:23:10.898Z,94679.00
2023-04-29T09:24:10.879Z,94683.00
2023-04-29T09:25:10.960Z,94685.00
2023-04-29T09:26:10.922Z,94681.00
2023-04-29T09:27:10.934Z,94679.00
2023-04-29T09:28:10.966Z,94681.00
2023-04-29T09:29:11.019Z,94681.00
2023-04-29T09:30:11.015Z,94677.00
2023-04-29T09:31:11.060Z,94679.00
2023-04-29T09:32:11.035Z,94677.00
2023-04-29T09:33:11.158Z,94675.00
2023-04-29T09:34:11.066Z,94673.00
2023-04-29T09:35:11.064Z,94671.00
2023-04-29T09:36:11.170Z,94669.00
2023-04-29T09:37:11.078Z,94669.00
2023-04-29T09:38:11.070Z,94669.00
2023-04-29T09:39:11.107Z,94667.00
2023-04-29T09:40:26.096Z,94665.00
2023-04-29T09:42:30.019Z,94671.00
2023-04-29T09:43:30.040Z,94665.00
2023-04-29T09:44:32.937Z,94669.00
2023-04-29T09:45:30.032Z,94671.00
2023-04-29T09:46:30.081Z,94671.00
2023-04-29T09:47:30.098Z,94669.00
2023-04-29T09:48:30.074Z,94665.00
2023-04-29T09:49:30.108Z,94665.00
2023-04-29T09:50:30.068Z,94665.00
2023-04-29T09:51:29.935Z,94665.00
2023-04-29T09:52:30.041Z,94661.00
2023-04-29T09:53:30.003Z,94663.00
2023-04-29T09:54:29.914Z,94663.00
2023-04-29T09:55:29.897Z,94661.00
2023-04-29T10:00:33.680Z,94649.00
2023-04-29T10:01:33.731Z,94651.00
2023-04-29T10:02:33.850Z,94649.00
2023-04-29T10:03:33.882Z,94649.00
2023-04-29T10:04:33.866Z,94651.00
2023-04-29T10:05:33.904Z,94647.00
2023-04-29T10:06:33.895Z,94646.00
2023-04-29T10:07:33.893Z,94646.00
2023-04-29T10:08:33.930Z,94646.00
2023-04-29T10:09:33.973Z,94644.00
2023-04-29T10:10:33.953Z,94644.00
2023-04-29T10:11:34.042Z,94646.00
2023-04-29T10:12:34.169Z,94646.00
2023-04-29T10:13:34.165Z,94646.00
2023-04-29T10:14:34.184Z,94646.00
2023-04-29T10:15:34.317Z,94644.00
2023-04-29T10:16:34.502Z,94644.00
2023-04-29T10:17:34.397Z,94640.00
2023-04-29T10:18:34.442Z,94640.00
2023-04-29T10:19:34.644Z,94636.00
2023-04-29T10:20:34.566Z,94636.00
2023-04-29T10:21:34.573Z,94634.00
2023-04-29T10:22:34.627Z,94634.00
2023-04-29T10:23:34.648Z,94640.00
2023-04-29T10:24:34.733Z,94636.00
2023-04-29T10:25:34.766Z,94634.00
2023-04-29T10:26:34.851Z,94634.00
2023-04-29T10:27:34.920Z,94632.00
2023-04-29T10:28:34.957Z,94628.00
2023-04-29T10:29:35.049Z,94628.00
2023-04-29T10:30:35.062Z,94626.00
2023-04-29T10:31:35.149Z,94624.00
2023-04-29T10:32:47.194Z,94622.00
2023-04-29T10:33:36.191Z,94622.00
2023-04-29T10:34:35.138Z,94618.00
2023-04-29T10:35:35.145Z,94618.00
2023-04-29T10:36:35.158Z,94616.00
2023-04-29T10:37:35.194Z,94620.00
2023-04-29T10:38:35.150Z,94614.00
2023-04-29T10:39:35.144Z,94612.00
2023-04-29T10:40:35.082Z,94608.00
2023-04-29T10:41:35.111Z,94604.00
2023-04-29T10:42:35.081Z,94606.00
2023-04-29T10:43:35.109Z,94604.00
2023-04-29T10:44:35.143Z,94602.00
2023-04-29T10:45:35.110Z,94599.00
2023-04-29T10:46:35.175Z,94597.00
2023-04-29T10:47:35.189Z,94593.00
2023-04-29T10:48:35.248Z,94593.00
2023-04-29T10:49:35.322Z,94593.00
2023-04-29T10:50:35.320Z,94589.00
2023-04-29T10:51:35.367Z,94587.00
2023-04-29T10:52:35.373Z,94585.00
2023-04-29T10:53:35.405Z,94583.00
2023-04-29T10:54:35.452Z,94581.00
2023-04-29T10:55:35.515Z,94579.00
2023-04-29T10:56:35.495Z,94579.00
2023-04-29T10:57:35.509Z,94579.00
2023-04-29T10:58:35.578Z,94577.00
2023-04-29T10:59:35.610Z,94573.00
2023-04-29T11:00:35.650Z,94575.00
2023-04-29T11:01:35.784Z,94573.00
2023-04-29T11:02:35.789Z,94577.00
2023-04-29T11:03:35.824Z,94573.00
2023-04-29T11:04:35.771Z,94571.00
2023-04-29T11:05:35.812Z,94567.00
2023-04-29T11:06:35.771Z,94565.00
2023-04-29T11:07:35.792Z,94567.00
2023-04-29T11:08:35.798Z,94567.00
2023-04-29T11:09:35.789Z,94565.00
2023-04-29T11:10:35.819Z,94567.00
2023-04-29T11:11:35.810Z,94567.00
2023-04-29T11:12:35.870Z,94565.00
2023-04-29T11:13:35.842Z,94563.00
2023-04-29T11:14:35.925Z,94565.00
2023-04-29T11:15:35.915Z,94565.00
2023-04-29T11:16:35.903Z,94561.00
2023-04-29T11:17:35.929Z,94565.00
2023-04-29T11:18:35.856Z,94565.00
2023-04-29T11:19:35.908Z,94563.00
2023-04-29T11:20:35.955Z,94567.00
2023-04-29T11:21:35.948Z,94565.00
2023-04-29T11:22:35.963Z,94567.00
2023-04-29T11:23:35.886Z,94567.00
2023-04-29T11:24:35.890Z,94567.00
2023-04-29T11:25:37.387Z,94567.00
2023-04-29T11:26:35.939Z,94569.00
2023-04-29T11:27:35.928Z,94565.00
2023-04-29T11:28:35.887Z,94565.00
2023-04-29T11:29:35.892Z,94561.00
2023-04-29T11:30:35.916Z,94567.00
2023-04-29T11:31:35.964Z,94565.00
2023-04-29T11:32:35.921Z,94565.00
2023-04-29T11:33:35.950Z,94567.00
2023-04-29T11:34:35.862Z,94567.00
2023-04-29T11:35:35.839Z,94569.00
2023-04-29T11:36:35.862Z,94577.00
2023-04-29T11:37:35.862Z,94581.00
2023-04-29T11:38:35.776Z,94585.00
2023-04-29T11:39:35.789Z,94587.00
2023-04-29T11:40:35.795Z,94587.00
2023-04-29T11:41:35.869Z,94589.00
2023-04-29T11:42:35.776Z,94587.00
2023-04-29T11:43:35.789Z,94591.00
2023-04-29T11:44:35.759Z,94595.00
2023-04-29T11:45:35.797Z,94591.00
2023-04-29T11:46:35.758Z,94599.00
2023-04-29T11:47:35.806Z,94597.00
2023-04-29T11:48:35.772Z,94597.00
2023-04-29T11:49:35.720Z,94597.00
2023-04-29T11:50:35.824Z,94597.00